Time;durP1;ratioP1;P1;durP2;ratioP2;P2;SDS_P1;SDS_P2;PMS_P1;PMS_P2;Temp;Humidity;BMP_temperature;BMP_pressure;BME280_temperature;BME280_humidity;BME280_pressure;Samples;Min_cycle;Max_cycle;Signal;HPM_P1;HPM_P2
2021/01/22 00:01:08;;;;;;;0.73;0.00;;;4.30;99.90;;;;;;5055376;28;20031;-74
2021/01/22 00:03:34;;;;;;;1.98;0.00;;;4.40;99.90;;;;;;5056570;28;20052;-75
2021/01/22 00:05:59;;;;;;;0.70;0.10;;;4.30;99.90;;;;;;5055757;28;20455;-75
2021/01/22 00:08:25;;;;;;;0.50;0.10;;;4.20;99.90;;;;;;5055960;28;20021;-75
2021/01/22 00:10:50;;;;;;;0.95;0.10;;;4.20;99.90;;;;;;5047444;28;20105;-75
2021/01/22 00:13:16;;;;;;;0.38;0.15;;;4.20;99.90;;;;;;5034973;28;20026;-74
2021/01/22 00:15:42;;;;;;;0.30;0.00;;;4.30;99.90;;;;;;5034154;28;20502;-75
2021/01/22 00:18:07;;;;;;;0.10;0.00;;;4.40;99.90;;;;;;5036198;28;20108;-75
2021/01/22 00:20:33;;;;;;;0.55;0.25;;;4.30;99.90;;;;;;5040813;28;20032;-75
2021/01/22 00:22:58;;;;;;;0.10;0.00;;;4.30;99.90;;;;;;5055521;28;20103;-74
2021/01/22 00:25:24;;;;;;;0.77;0.00;;;4.30;99.90;;;;;;5054186;28;20021;-74
2021/01/22 00:27:50;;;;;;;2.80;0.05;;;4.30;99.90;;;;;;5055065;28;20437;-74
2021/01/22 00:30:15;;;;;;;1.40;0.17;;;4.20;99.90;;;;;;5039147;28;20059;-74
2021/01/22 00:32:41;;;;;;;0.68;0.15;;;4.20;99.90;;;;;;5034261;28;20030;-74
2021/01/22 00:35:07;;;;;;;0.77;0.20;;;4.30;99.90;;;;;;5035780;28;20064;-74
2021/01/22 00:37:32;;;;;;;0.55;0.00;;;4.30;99.90;;;;;;5034218;28;20400;-74
2021/01/22 00:39:58;;;;;;;1.20;0.10;;;4.30;99.90;;;;;;5047651;28;20052;-74
2021/01/22 00:42:24;;;;;;;0.65;0.10;;;4.20;99.90;;;;;;5054461;28;20075;-74
2021/01/22 00:44:49;;;;;;;0.93;0.30;;;4.20;99.90;;;;;;5054268;28;20044;-74
2021/01/22 00:47:15;;;;;;;3.25;0.10;;;4.30;99.90;;;;;;5056098;28;20479;-74
2021/01/22 00:49:41;;;;;;;1.35;0.10;;;4.30;99.90;;;;;;5044243;28;20021;-74
2021/01/22 00:52:06;;;;;;;0.10;0.00;;;4.30;99.90;;;;;;5034086;28;20045;-74
2021/01/22 00:54:32;;;;;;;1.88;0.10;;;4.30;99.90;;;;;;5035581;28;20026;-74
2021/01/22 00:56:57;;;;;;;1.17;0.10;;;4.40;99.90;;;;;;5035094;28;20116;-74
2021/01/22 00:59:25;;;;;;;0.75;0.00;;;4.30;99.90;;;;;;5043139;28;20021;-74
2021/01/22 01:01:51;;;;;;;0.73;0.10;;;4.40;99.90;;;;;;5054557;28;20029;-74
2021/01/22 01:04:17;;;;;;;0.93;0.20;;;4.40;99.90;;;;;;5055004;28;20029;-74
2021/01/22 01:06:42;;;;;;;0.47;0.08;;;4.40;99.90;;;;;;5053421;28;20017;-74
2021/01/22 01:09:08;;;;;;;1.13;0.00;;;4.40;99.90;;;;;;5047393;28;20006;-74
2021/01/22 01:11:34;;;;;;;0.75;0.10;;;4.50;99.90;;;;;;5035541;28;20021;-74
2021/01/22 01:14:00;;;;;;;0.25;0.00;;;4.40;99.90;;;;;;5034959;28;20060;-74
2021/01/22 01:16:26;;;;;;;1.90;0.13;;;4.40;99.90;;;;;;5035343;28;20437;-74
2021/01/22 01:18:51;;;;;;;2.72;0.10;;;4.40;99.90;;;;;;5038177;28;20483;-73
2021/01/22 01:21:17;;;;;;;1.60;0.35;;;4.50;99.90;;;;;;5054845;28;20044;-74
2021/01/22 01:23:42;;;;;;;0.50;0.20;;;4.40;99.90;;;;;;5053848;28;20482;-74
2021/01/22 01:26:08;;;;;;;0.85;0.00;;;4.40;99.90;;;;;;5053155;28;20047;-74
2021/01/22 01:28:33;;;;;;;2.95;0.40;;;4.40;99.90;;;;;;5052755;28;20021;-74
2021/01/22 01:30:59;;;;;;;2.28;0.30;;;4.40;99.90;;;;;;5052758;28;20510;-74
2021/01/22 01:33:24;;;;;;;0.68;0.20;;;4.40;99.90;;;;;;5052591;28;20490;-74
2021/01/22 01:35:52;;;;;;;1.05;0.20;;;4.40;99.90;;;;;;5054538;28;20025;-73
2021/01/22 01:38:18;;;;;;;1.20;0.40;;;4.30;99.90;;;;;;5052701;28;20029;-73
2021/01/22 01:40:45;;;;;;;2.63;0.70;;;4.30;99.90;;;;;;5049935;28;20032;-74
2021/01/22 01:43:11;;;;;;;1.67;0.40;;;4.40;99.90;;;;;;5039760;28;20498;-74
2021/01/22 01:45:39;;;;;;;0.80;0.40;;;4.30;99.90;;;;;;5033337;28;20021;-74
2021/01/22 01:48:07;;;;;;;3.17;0.65;;;4.40;99.90;;;;;;5041599;28;20013;-74
2021/01/22 01:50:33;;;;;;;2.83;0.85;;;4.40;99.90;;;;;;5053453;28;20387;-74
2021/01/22 01:53:00;;;;;;;2.00;0.50;;;4.40;99.90;;;;;;5039683;28;20029;-74
2021/01/22 01:55:26;;;;;;;4.32;0.55;;;4.40;99.90;;;;;;5039540;28;20148;-73
2021/01/22 01:57:52;;;;;;;3.30;0.93;;;4.40;99.90;;;;;;5034066;28;20527;-73
2021/01/22 02:00:18;;;;;;;5.32;0.80;;;4.40;99.90;;;;;;5038560;28;20041;-73
2021/01/22 02:02:43;;;;;;;2.15;0.80;;;4.40;99.90;;;;;;5051781;28;20037;-73
2021/01/22 02:05:10;;;;;;;1.83;0.88;;;4.40;99.90;;;;;;5043791;28;20025;-74
2021/01/22 02:07:35;;;;;;;1.95;0.73;;;4.30;99.90;;;;;;5032521;28;20029;-74
2021/01/22 02:10:05;;;;;;;5.55;1.52;;;4.30;99.90;;;;;;5043938;28;20075;-73
2021/01/22 02:12:32;;;;;;;3.78;1.20;;;4.40;99.90;;;;;;5033402;28;20087;-74
2021/01/22 02:14:59;;;;;;;4.07;1.17;;;4.40;99.90;;;;;;5040378;28;20037;-74
2021/01/22 02:17:25;;;;;;;2.78;0.98;;;4.30;99.90;;;;;;5053333;28;20477;-74
2021/01/22 02:19:58;;;;;;;5.30;1.05;;;4.40;99.90;;;;;;5043121;28;20121;-74
2021/01/22 02:22:24;;;;;;;2.85;1.27;;;4.40;99.90;;;;;;5032238;28;20029;-74
2021/01/22 02:24:52;;;;;;;3.47;1.23;;;4.40;99.90;;;;;;5038861;28;20021;-73
2021/01/22 02:27:19;;;;;;;3.55;1.25;;;4.40;99.90;;;;;;5052539;28;20060;-73
2021/01/22 02:29:45;;;;;;;2.80;1.85;;;4.30;99.90;;;;;;5039240;28;20032;-73
2021/01/22 02:32:12;;;;;;;1.92;0.93;;;4.30;99.90;;;;;;5033833;28;20029;-73
2021/01/22 02:34:40;;;;;;;5.35;1.33;;;4.40;99.90;;;;;;5034445;28;20026;-73
2021/01/22 02:37:11;;;;;;;2.55;1.40;;;4.30;99.90;;;;;;5032712;28;20025;-73
2021/01/22 02:39:42;;;;;;;5.43;1.00;;;4.30;99.90;;;;;;5038752;28;20062;-73
2021/01/22 02:42:14;;;;;;;3.35;1.10;;;4.30;99.90;;;;;;5053409;28;20040;-73
2021/01/22 02:44:39;;;;;;;2.10;0.77;;;4.30;99.90;;;;;;5054330;28;20104;-73
2021/01/22 02:47:13;;;;;;;1.50;0.40;;;4.40;99.90;;;;;;5053555;28;20103;-73
2021/01/22 02:49:39;;;;;;;3.60;1.15;;;4.30;99.90;;;;;;5046795;28;20375;-73
2021/01/22 02:52:05;;;;;;;4.72;0.90;;;4.30;99.90;;;;;;5032626;28;20029;-73
2021/01/22 02:54:30;;;;;;;0.82;0.13;;;4.30;99.90;;;;;;5034369;28;20117;-73
2021/01/22 02:57:03;;;;;;;0.47;0.00;;;4.30;99.90;;;;;;5034012;28;20053;-73
2021/01/22 02:59:34;;;;;;;1.50;0.20;;;4.20;99.90;;;;;;5039256;28;20021;-74
2021/01/22 03:02:29;;;;;;;1.35;0.43;;;4.20;99.90;;;;;;5053908;28;20060;-74
2021/01/22 03:04:55;;;;;;;0.47;0.00;;;4.20;99.90;;;;;;5052526;28;20056;-74
2021/01/22 03:07:44;;;;;;;0.65;0.00;;;4.10;99.90;;;;;;5053881;28;20067;-74
2021/01/22 03:10:10;;;;;;;;;;;4.10;99.90;;;;;;5043127;28;20029;-73
2021/01/22 03:12:36;;;;;;;1.00;0.00;;;4.00;99.90;;;;;;5033577;28;19927;-74
2021/01/22 03:15:03;;;;;;;3.92;0.00;;;4.00;99.90;;;;;;5033155;28;20538;-74
2021/01/22 03:17:29;;;;;;;0.30;0.00;;;4.00;99.90;;;;;;5033354;28;20040;-74
2021/01/22 03:19:56;;;;;;;3.72;0.10;;;4.00;99.90;;;;;;5039876;28;20461;-74
2021/01/22 03:22:22;;;;;;;1.10;0.00;;;3.90;99.90;;;;;;5053543;28;20414;-74
2021/01/22 03:24:48;;;;;;;0.45;0.00;;;3.90;99.90;;;;;;5053196;28;20025;-74
2021/01/22 03:27:15;;;;;;;3.45;0.45;;;3.90;99.90;;;;;;5052050;28;20475;-74
2021/01/22 03:29:41;;;;;;;0.77;0.00;;;3.90;99.90;;;;;;5045367;28;20072;-74
2021/01/22 03:32:07;;;;;;;1.15;0.65;;;3.90;99.90;;;;;;5032993;28;20384;-74
2021/01/22 03:34:33;;;;;;;3.22;0.00;;;3.80;99.90;;;;;;5032396;28;20392;-74
2021/01/22 03:37:00;;;;;;;0.65;0.00;;;3.80;99.90;;;;;;5033354;28;20025;-74
2021/01/22 03:39:26;;;;;;;1.85;0.00;;;3.90;99.90;;;;;;5050648;28;20026;-74
2021/01/22 03:41:52;;;;;;;2.13;0.10;;;3.90;99.90;;;;;;5051762;28;20036;-74
2021/01/22 03:44:19;;;;;;;3.15;0.10;;;3.90;99.90;;;;;;5053006;28;20360;-74
2021/01/22 03:46:46;;;;;;;1.90;0.00;;;3.90;99.90;;;;;;5042986;28;20099;-74
2021/01/22 03:49:12;;;;;;;0.08;0.00;;;3.80;99.90;;;;;;5032225;28;20076;-74
2021/01/22 03:51:38;;;;;;;0.52;0.00;;;3.80;99.90;;;;;;5035556;28;20483;-74
2021/01/22 03:54:05;;;;;;;4.20;0.00;;;3.80;99.90;;;;;;5036216;28;20025;-74
2021/01/22 03:56:31;;;;;;;8.02;0.90;;;3.70;99.90;;;;;;5042696;28;20036;-74
2021/01/22 03:58:57;;;;;;;1.35;0.00;;;3.70;99.90;;;;;;5056593;28;20036;-74
2021/01/22 04:01:23;;;;;;;1.33;0.00;;;3.70;99.90;;;;;;5055130;28;20025;-74
2021/01/22 04:03:49;;;;;;;0.55;0.00;;;3.70;99.90;;;;;;5056550;28;20067;-74
2021/01/22 04:06:15;;;;;;;0.68;0.00;;;3.60;99.90;;;;;;5052638;28;20025;-74
2021/01/22 04:08:41;;;;;;;2.28;0.00;;;3.70;99.90;;;;;;5036625;28;20017;-74
2021/01/22 04:11:08;;;;;;;2.92;0.20;;;3.70;99.90;;;;;;5046947;28;20492;-74
2021/01/22 04:13:33;;;;;;;0.00;0.00;;;3.60;99.90;;;;;;5056085;28;20064;-74
2021/01/22 04:16:00;;;;;;;1.77;0.17;;;3.70;99.90;;;;;;5056369;28;20122;-75
2021/01/22 04:18:26;;;;;;;3.03;0.00;;;3.70;99.90;;;;;;5056256;28;20028;-75
2021/01/22 04:20:51;;;;;;;1.02;0.00;;;3.70;99.90;;;;;;5046852;28;20038;-75
2021/01/22 04:23:17;;;;;;;2.65;0.10;;;3.60;99.90;;;;;;5034906;28;20049;-75
2021/01/22 04:25:43;;;;;;;2.38;0.03;;;3.60;99.90;;;;;;5034792;28;20033;-75
2021/01/22 04:28:08;;;;;;;0.35;0.05;;;3.60;99.90;;;;;;5036200;28;20026;-75
2021/01/22 04:30:34;;;;;;;3.33;0.00;;;3.70;99.90;;;;;;5039574;28;20112;-75
2021/01/22 04:32:59;;;;;;;3.35;0.50;;;3.70;99.90;;;;;;5054773;28;20025;-76
2021/01/22 04:35:25;;;;;;;2.80;0.13;;;3.70;99.90;;;;;;5044733;28;20025;-75
2021/01/22 04:37:51;;;;;;;3.38;0.10;;;3.70;99.90;;;;;;5035866;28;20009;-75
2021/01/22 04:40:16;;;;;;;8.65;0.65;;;3.70;99.90;;;;;;5035635;28;20017;-76
2021/01/22 04:42:45;;;;;;;1.63;0.60;;;3.70;99.90;;;;;;5035916;28;20022;-75
2021/01/22 04:45:13;;;;;;;3.47;0.60;;;3.70;99.90;;;;;;5042417;28;20017;-76
2021/01/22 04:47:40;;;;;;;3.97;0.40;;;3.70;99.90;;;;;;5055599;28;20148;-75
2021/01/22 04:50:07;;;;;;;3.50;0.70;;;3.70;99.90;;;;;;5054186;28;20021;-75
2021/01/22 04:52:35;;;;;;;3.72;0.80;;;3.70;99.90;;;;;;5055359;28;20044;-75
2021/01/22 04:55:03;;;;;;;4.20;0.73;;;3.70;99.90;;;;;;5047396;28;20029;-75
2021/01/22 04:57:31;;;;;;;9.48;0.73;;;3.70;99.90;;;;;;5034291;28;20032;-75
2021/01/22 04:59:57;;;;;;;5.07;1.20;;;3.70;99.90;;;;;;5035910;28;20025;-76
2021/01/22 05:02:26;;;;;;;8.02;0.80;;;3.70;99.90;;;;;;5035465;28;20502;-75
2021/01/22 05:04:51;;;;;;;4.22;0.85;;;3.70;99.90;;;;;;5040153;28;20379;-75
2021/01/22 05:07:21;;;;;;;5.15;0.70;;;3.70;99.90;;;;;;5055406;28;20029;-75
2021/01/22 05:09:47;;;;;;;4.85;0.68;;;3.60;99.90;;;;;;5055401;28;20017;-75
2021/01/22 05:12:12;;;;;;;6.03;1.48;;;3.60;99.90;;;;;;5055071;28;20021;-75
2021/01/22 05:14:38;;;;;;;3.08;0.80;;;3.50;99.90;;;;;;5052757;28;20119;-76
2021/01/22 05:17:12;;;;;;;3.60;0.50;;;3.50;99.90;;;;;;5054501;28;20387;-75
2021/01/22 05:19:42;;;;;;;6.18;0.95;;;3.50;99.90;;;;;;5054797;28;20038;-75
2021/01/22 05:22:17;;;;;;;5.82;1.02;;;3.50;99.90;;;;;;5053316;28;20021;-75
2021/01/22 05:24:43;;;;;;;9.70;0.77;;;3.50;99.90;;;;;;5049670;28;20021;-75
2021/01/22 05:27:13;;;;;;;7.00;1.33;;;3.60;99.90;;;;;;5033400;28;20022;-75
2021/01/22 05:29:41;;;;;;;4.57;0.43;;;3.60;99.90;;;;;;5033335;28;20479;-75
2021/01/22 05:32:23;;;;;;;6.57;1.10;;;3.70;99.90;;;;;;5034765;28;20105;-75
2021/01/22 05:34:49;;;;;;;7.10;1.35;;;3.70;99.90;;;;;;5038374;28;20435;-75
2021/01/22 05:37:15;;;;;;;6.97;1.25;;;3.70;99.90;;;;;;5054271;28;20056;-75
2021/01/22 05:39:41;;;;;;;7.63;1.60;;;3.60;99.90;;;;;;5053315;28;20483;-75
2021/01/22 05:42:07;;;;;;;6.90;1.08;;;3.70;99.90;;;;;;5054504;28;20444;-75
2021/01/22 05:44:34;;;;;;;3.83;1.38;;;3.70;99.90;;;;;;5050982;28;20079;-75
2021/01/22 05:47:08;;;;;;;6.43;1.95;;;3.70;99.90;;;;;;5034548;28;20033;-75
2021/01/22 05:49:52;;;;;;;7.10;1.88;;;3.70;99.90;;;;;;5033090;28;20032;-75
2021/01/22 05:52:25;;;;;;;9.60;2.22;;;3.60;99.90;;;;;;5033162;28;20029;-75
2021/01/22 05:54:51;;;;;;;5.47;2.20;;;3.60;99.90;;;;;;5036444;28;20031;-75
2021/01/22 05:57:17;;;;;;;10.52;2.35;;;3.60;99.90;;;;;;5052932;28;20056;-75
2021/01/22 05:59:43;;;;;;;7.90;2.03;;;3.60;99.90;;;;;;5052672;28;20021;-75
2021/01/22 06:02:28;;;;;;;9.52;2.70;;;3.60;99.90;;;;;;5054078;28;20044;-75
2021/01/22 06:05:09;;;;;;;7.38;2.53;;;3.70;99.90;;;;;;5049825;28;20018;-75
2021/01/22 06:07:40;;;;;;;19.98;3.35;;;3.70;99.90;;;;;;5032744;28;20025;-75
2021/01/22 06:10:22;;;;;;;5.53;2.13;;;3.70;99.90;;;;;;5032997;28;20089;-75
2021/01/22 06:12:51;;;;;;;8.07;2.50;;;3.70;99.90;;;;;;5032875;28;20022;-75
2021/01/22 06:15:18;;;;;;;9.43;3.13;;;3.70;99.90;;;;;;5032356;28;20112;-74
2021/01/22 06:17:52;;;;;;;8.13;3.03;;;3.70;99.90;;;;;;5034580;28;20083;-73
2021/01/22 06:20:21;;;;;;;9.68;3.00;;;3.70;99.90;;;;;;5035448;28;20026;-73
2021/01/22 06:23:10;;;;;;;10.65;3.45;;;3.70;99.90;;;;;;5034119;28;20368;-74
2021/01/22 06:25:37;;;;;;;10.23;2.63;;;3.60;99.90;;;;;;5025012;28;20025;-73
2021/01/22 06:28:05;;;;;;;7.93;3.10;;;3.60;99.90;;;;;;5034232;28;20022;-74
2021/01/22 06:30:35;;;;;;;11.10;2.73;;;3.60;99.90;;;;;;5041714;28;20052;-74
2021/01/22 06:33:03;;;;;;;14.13;2.25;;;3.60;99.90;;;;;;5054049;28;20270;-74
2021/01/22 06:35:30;;;;;;;6.95;2.33;;;3.60;99.90;;;;;;5052525;28;20417;-74
2021/01/22 06:37:58;;;;;;;13.90;2.58;;;3.60;99.90;;;;;;5052844;28;20387;-74
2021/01/22 06:40:26;;;;;;;7.72;3.03;;;3.60;99.90;;;;;;5033881;28;20379;-74
2021/01/22 06:42:53;;;;;;;9.73;2.45;;;3.60;99.90;;;;;;5033743;28;20028;-74
2021/01/22 06:45:20;;;;;;;9.30;2.38;;;3.60;99.90;;;;;;5039426;28;20053;-74
2021/01/22 06:48:07;;;;;;;11.13;3.03;;;3.60;99.90;;;;;;5052222;28;20018;-74
2021/01/22 06:50:37;;;;;;;11.82;3.67;;;3.60;99.90;;;;;;5039772;28;20069;-74
2021/01/22 06:53:14;;;;;;;8.05;2.75;;;3.60;99.90;;;;;;5033512;28;20501;-74
2021/01/22 06:55:52;;;;;;;9.25;2.67;;;3.50;99.90;;;;;;5032781;28;20075;-74
2021/01/22 06:58:31;;;;;;;8.63;2.22;;;3.50;99.90;;;;;;5046306;28;20549;-74
2021/01/22 07:00:58;;;;;;;13.00;3.22;;;3.50;99.90;;;;;;5051279;28;20061;-74
2021/01/22 07:03:36;;;;;;;4.15;1.80;;;3.60;99.90;;;;;;5053209;28;20044;-74
2021/01/22 07:06:30;;;;;;;7.82;3.33;;;3.50;99.90;;;;;;5050080;28;20029;-75
2021/01/22 07:08:58;;;;;;;8.45;3.70;;;3.50;99.90;;;;;;5051371;28;20041;-75
2021/01/22 07:11:24;;;;;;;10.05;4.05;;;3.50;99.90;;;;;;5052995;28;20029;-75
2021/01/22 07:13:50;;;;;;;7.65;3.47;;;3.40;99.90;;;;;;5047682;28;20025;-75
2021/01/22 07:16:19;;;;;;;11.50;3.35;;;3.40;99.90;;;;;;5033788;28;20365;-75
2021/01/22 07:18:54;;;;;;;8.20;3.30;;;3.30;99.90;;;;;;5033435;28;20029;-77
2021/01/22 07:21:32;;;;;;;12.13;2.95;;;3.30;99.90;;;;;;5051004;28;20029;-75
2021/01/22 07:24:00;;;;;;;13.98;3.28;;;3.30;99.90;;;;;;5053609;28;20025;-75
2021/01/22 07:26:44;;;;;;;7.70;2.78;;;3.30;99.90;;;;;;5052346;28;20017;-75
2021/01/22 07:29:24;;;;;;;11.40;3.67;;;3.30;99.90;;;;;;5057395;28;20017;-75
2021/01/22 07:32:06;;;;;;;13.32;3.30;;;3.30;99.90;;;;;;5046353;28;20029;-74
2021/01/22 07:34:46;;;;;;;6.57;2.55;;;3.30;99.90;;;;;;5037569;28;20055;-74
2021/01/22 07:37:22;;;;;;;11.30;2.75;;;3.40;99.90;;;;;;5048229;28;20066;-75
2021/01/22 07:39:50;;;;;;;8.52;2.50;;;3.30;99.90;;;;;;5051669;28;20483;-74
2021/01/22 07:42:19;;;;;;;7.57;2.22;;;3.30;99.90;;;;;;5055559;28;20072;-74
2021/01/22 07:44:52;;;;;;;6.32;2.45;;;3.30;99.90;;;;;;5051694;28;20021;-74
2021/01/22 07:47:32;;;;;;;6.75;2.90;;;3.40;99.90;;;;;;5037871;28;20535;-74
2021/01/22 07:50:05;;;;;;;15.77;2.63;;;3.40;99.90;;;;;;5035564;28;20033;-74
2021/01/22 07:52:35;;;;;;;11.70;3.20;;;3.40;99.90;;;;;;5053520;28;20490;-74
2021/01/22 07:55:03;;;;;;;7.90;2.40;;;3.40;99.90;;;;;;5057253;28;20479;-74
2021/01/22 07:57:29;;;;;;;10.10;2.75;;;3.40;99.90;;;;;;5057106;28;20017;-75
2021/01/22 07:59:57;;;;;;;6.28;2.33;;;3.40;99.90;;;;;;5055162;28;20032;-74
2021/01/22 08:02:24;;;;;;;14.95;3.88;;;3.40;99.90;;;;;;5045885;28;20028;-74
2021/01/22 08:04:59;;;;;;;10.52;1.60;;;3.40;99.90;;;;;;5056889;28;20074;-74
2021/01/22 08:07:38;;;;;;;8.68;1.83;;;3.40;99.90;;;;;;5052055;28;20480;-74
2021/01/22 08:10:09;;;;;;;9.80;2.03;;;3.40;99.90;;;;;;5038289;28;20022;-76
2021/01/22 08:12:36;;;;;;;9.45;1.90;;;3.40;99.90;;;;;;5053469;28;20479;-76
2021/01/22 08:15:21;;;;;;;5.68;1.55;;;3.40;99.90;;;;;;5045517;28;20033;-75
2021/01/22 08:17:47;;;;;;;5.55;1.90;;;3.40;99.90;;;;;;5036968;28;20043;-76
2021/01/22 08:20:15;;;;;;;16.20;2.05;;;3.40;99.90;;;;;;5056457;28;20383;-75
2021/01/22 08:22:41;;;;;;;7.45;1.15;;;3.40;99.90;;;;;;5051917;28;20476;-75
2021/01/22 08:25:07;;;;;;;9.77;2.03;;;3.40;99.90;;;;;;5053828;28;20485;-74
2021/01/22 08:27:43;;;;;;;5.63;1.50;;;3.40;99.90;;;;;;5056868;28;20116;-75
2021/01/22 08:30:09;;;;;;;9.20;1.75;;;3.60;99.90;;;;;;5045337;28;20016;-74
2021/01/22 08:32:35;;;;;;;4.10;1.05;;;3.40;99.90;;;;;;5055653;28;20033;-74
2021/01/22 08:35:01;;;;;;;4.80;1.20;;;3.40;99.90;;;;;;5047023;28;20047;-74
2021/01/22 08:37:26;;;;;;;9.02;2.03;;;3.50;99.90;;;;;;5034215;28;20071;-73
2021/01/22 08:39:58;;;;;;;5.65;1.35;;;3.50;99.90;;;;;;5036541;28;20041;-73
2021/01/22 08:42:28;;;;;;;8.18;1.25;;;3.50;99.90;;;;;;5047715;28;20121;-73
2021/01/22 08:44:56;;;;;;;3.25;0.70;;;3.50;99.90;;;;;;5035479;28;20017;-74
2021/01/22 08:47:23;;;;;;;7.53;1.27;;;3.50;99.90;;;;;;5036033;28;20021;-73
2021/01/22 08:50:00;;;;;;;8.88;1.20;;;3.50;99.90;;;;;;5037490;28;20411;-74
2021/01/22 08:52:26;;;;;;;6.93;1.13;;;3.50;99.90;;;;;;5036711;28;20109;-75
2021/01/22 08:54:54;;;;;;;10.05;1.55;;;3.50;99.90;;;;;;5034058;28;20514;-76
2021/01/22 08:57:22;;;;;;;7.30;1.30;;;3.50;99.90;;;;;;5036016;28;20112;-76
2021/01/22 08:59:55;;;;;;;10.15;1.73;;;3.50;99.90;;;;;;5034288;28;20025;-76
2021/01/22 09:02:37;;;;;;;4.93;0.90;;;3.60;99.90;;;;;;5035312;28;20167;-77
2021/01/22 09:05:05;;;;;;;8.43;2.10;;;3.60;99.90;;;;;;5034545;28;20013;-77
2021/01/22 09:07:30;;;;;;;6.47;1.10;;;3.70;99.90;;;;;;5035748;28;20026;-76
2021/01/22 09:09:56;;;;;;;7.85;1.10;;;4.40;99.90;;;;;;5035679;28;20028;-76
2021/01/22 09:12:30;;;;;;;4.90;1.88;;;3.80;99.90;;;;;;5035584;28;20021;-76
2021/01/22 09:15:02;;;;;;;9.90;2.15;;;3.80;99.90;;;;;;5111785;22;20068;-74
2021/01/22 09:17:34;;;;;;;9.93;0.90;;;3.90;99.90;;;;;;5054973;28;20017;-74
2021/01/22 09:20:04;;;;;;;6.20;1.73;;;3.90;99.90;;;;;;5055972;28;20154;-73
2021/01/22 09:22:31;;;;;;;8.00;1.83;;;4.00;99.90;;;;;;5055444;28;20032;-74
2021/01/22 09:25:01;;;;;;;4.75;1.08;;;4.00;99.90;;;;;;5055222;28;20471;-73
2021/01/22 09:27:27;;;;;;;12.00;2.13;;;4.10;99.90;;;;;;5052597;28;20013;-73
2021/01/22 09:29:53;;;;;;;5.63;1.48;;;4.10;99.90;;;;;;5030247;28;20036;-73
2021/01/22 09:32:19;;;;;;;8.45;1.77;;;4.10;99.90;;;;;;5035553;28;20060;-74
2021/01/22 09:34:45;;;;;;;5.53;1.35;;;4.10;99.90;;;;;;5017074;28;20033;-73
2021/01/22 09:37:10;;;;;;;8.20;1.70;;;4.20;99.90;;;;;;5047603;28;20491;-74
2021/01/22 09:39:36;;;;;;;16.17;1.80;;;4.20;99.90;;;;;;5025862;28;20071;-73
2021/01/22 09:42:02;;;;;;;9.68;2.20;;;4.20;99.90;;;;;;5037100;28;20021;-73
2021/01/22 09:44:27;;;;;;;7.68;1.83;;;4.70;99.90;;;;;;5025532;28;20029;-73
2021/01/22 09:46:53;;;;;;;9.82;2.00;;;4.20;99.90;;;;;;5030488;28;20021;-73
2021/01/22 09:49:25;;;;;;;3.50;1.02;;;4.20;99.90;;;;;;5016747;28;20086;-75
2021/01/22 09:51:50;;;;;;;11.38;2.40;;;4.30;99.90;;;;;;5036763;28;20100;-74
2021/01/22 09:54:16;;;;;;;5.95;1.70;;;4.30;99.90;;;;;;5066392;28;20025;-74
2021/01/22 09:56:42;;;;;;;6.55;1.40;;;4.40;99.90;;;;;;5025946;28;20077;-73
2021/01/22 09:59:08;;;;;;;7.72;1.38;;;4.40;99.90;;;;;;5036181;28;20041;-74
2021/01/22 10:01:35;;;;;;;5.68;1.10;;;4.50;99.90;;;;;;5038889;28;20479;-75
2021/01/22 10:04:01;;;;;;;13.43;1.40;;;4.60;99.90;;;;;;5052127;28;20025;-76
2021/01/22 10:06:27;;;;;;;8.85;1.67;;;4.70;99.90;;;;;;5036075;28;20017;-77
2021/01/22 10:08:53;;;;;;;8.40;0.95;;;4.80;99.90;;;;;;5017612;28;20052;-77
2021/01/22 10:11:28;;;;;;;4.53;0.47;;;4.80;99.90;;;;;;5046795;28;20435;-77
2021/01/22 10:13:55;;;;;;;13.82;1.23;;;5.00;99.90;;;;;;5040039;28;20036;-77
2021/01/22 10:16:25;;;;;;;5.63;1.20;;;5.10;99.90;;;;;;5075008;28;20056;-77
2021/01/22 10:18:54;;;;;;;10.40;1.45;;;5.20;99.90;;;;;;5075401;28;20020;-77
2021/01/22 10:21:23;;;;;;;4.97;0.55;;;5.20;99.90;;;;;;5057192;28;20066;-77
2021/01/22 10:23:50;;;;;;;3.88;0.95;;;5.20;99.90;;;;;;5057264;28;20386;-77
2021/01/22 10:26:17;;;;;;;6.85;1.27;;;5.20;99.90;;;;;;5074516;28;20025;-78
2021/01/22 10:28:43;;;;;;;7.03;1.13;;;5.20;99.90;;;;;;5058115;28;20108;-77
2021/01/22 10:31:09;;;;;;;7.47;2.25;;;5.30;99.90;;;;;;5054426;28;20021;-76
2021/01/22 10:33:35;;;;;;;5.55;1.10;;;5.30;99.90;;;;;;5054548;28;20383;-76
2021/01/22 10:36:01;;;;;;;8.00;1.17;;;5.40;99.90;;;;;;5058183;28;20025;-77
2021/01/22 10:38:27;;;;;;;5.53;1.20;;;5.40;99.90;;;;;;5054169;28;20025;-77
2021/01/22 10:40:54;;;;;;;4.68;1.10;;;5.50;99.90;;;;;;5043975;28;20033;-77
2021/01/22 10:43:20;;;;;;;11.32;2.08;;;5.50;99.90;;;;;;5035186;28;20025;-77
2021/01/22 10:45:46;;;;;;;6.07;0.95;;;5.50;99.90;;;;;;5034629;28;20021;-76
2021/01/22 10:48:11;;;;;;;9.25;0.70;;;5.70;99.90;;;;;;5016774;28;20494;-77
2021/01/22 10:50:37;;;;;;;6.80;1.67;;;5.60;99.90;;;;;;5023268;28;20041;-76
2021/01/22 10:53:03;;;;;;;7.85;1.00;;;5.70;99.90;;;;;;5040537;28;20025;-77
2021/01/22 10:55:28;;;;;;;3.25;0.77;;;5.60;99.90;;;;;;5027048;28;20044;-77
2021/01/22 10:57:54;;;;;;;4.90;0.80;;;5.70;99.90;;;;;;5020684;28;20025;-75
2021/01/22 11:00:20;;;;;;;5.40;0.80;;;5.80;99.90;;;;;;5041620;28;20398;-74
2021/01/22 11:02:45;;;;;;;4.78;1.02;;;5.90;99.90;;;;;;5042499;28;20040;-74
2021/01/22 11:05:12;;;;;;;3.53;0.30;;;6.00;99.90;;;;;;5053266;28;20014;-74
2021/01/22 11:07:37;;;;;;;7.30;0.75;;;6.10;99.90;;;;;;5046986;28;20059;-75
2021/01/22 11:10:04;;;;;;;5.78;0.60;;;6.20;99.90;;;;;;5057894;28;20028;-75
2021/01/22 11:12:33;;;;;;;8.95;1.20;;;6.20;99.90;;;;;;5056460;28;20405;-73
2021/01/22 11:14:58;;;;;;;9.25;1.65;;;6.30;99.90;;;;;;5061735;28;20032;-75
2021/01/22 11:17:24;;;;;;;10.00;0.80;;;6.40;99.90;;;;;;5077877;28;20043;-74
2021/01/22 11:19:49;;;;;;;5.82;0.40;;;6.40;99.90;;;;;;5040057;28;20033;-74
2021/01/22 11:22:15;;;;;;;10.45;0.40;;;6.40;99.90;;;;;;5038259;28;20024;-74
2021/01/22 11:24:41;;;;;;;4.40;0.55;;;6.40;99.90;;;;;;5039011;28;20025;-74
2021/01/22 11:27:06;;;;;;;4.43;0.28;;;6.50;99.90;;;;;;5047211;28;20100;-74
2021/01/22 11:29:32;;;;;;;4.05;0.50;;;6.40;99.90;;;;;;5047892;28;20360;-73
2021/01/22 11:31:58;;;;;;;8.30;0.60;;;6.40;99.90;;;;;;5019954;28;20545;-73
2021/01/22 11:34:26;;;;;;;6.63;1.55;;;6.40;99.90;;;;;;5038467;28;20075;-76
2021/01/22 11:36:52;;;;;;;9.13;0.17;;;6.50;99.90;;;;;;5021209;28;20021;-73
2021/01/22 11:39:18;;;;;;;3.05;0.68;;;6.50;99.90;;;;;;5037755;28;20024;-73
2021/01/22 11:41:43;;;;;;;13.20;1.10;;;6.50;99.90;;;;;;5037791;28;20498;-73
2021/01/22 11:44:09;;;;;;;7.35;0.40;;;6.50;99.90;;;;;;5039792;28;20022;-76
2021/01/22 11:46:36;;;;;;;4.93;0.38;;;6.50;99.90;;;;;;5042500;28;20034;-74
2021/01/22 11:49:02;;;;;;;4.75;0.30;;;6.50;99.90;;;;;;5040310;28;20028;-72
2021/01/22 11:51:28;;;;;;;7.68;0.85;;;6.50;99.90;;;;;;5037415;28;20029;-73
2021/01/22 11:53:54;;;;;;;3.35;0.30;;;6.50;99.90;;;;;;5039051;28;20022;-72
2021/01/22 11:56:19;;;;;;;5.05;0.40;;;6.50;99.90;;;;;;5050261;28;20027;-73
2021/01/22 11:58:45;;;;;;;3.90;0.38;;;6.50;99.90;;;;;;5020690;28;20025;-73
2021/01/22 12:01:10;;;;;;;4.93;0.30;;;6.50;99.90;;;;;;5019122;28;20387;-73
2021/01/22 12:03:36;;;;;;;5.93;0.73;;;6.50;99.90;;;;;;5036855;28;20037;-73
2021/01/22 12:06:02;;;;;;;12.07;1.10;;;6.70;99.90;;;;;;5019288;28;20387;-73
2021/01/22 12:08:27;;;;;;;9.30;0.73;;;6.70;99.90;;;;;;5019107;28;20060;-73
2021/01/22 12:10:53;;;;;;;4.93;0.40;;;6.80;99.90;;;;;;5036446;28;20071;-73
2021/01/22 12:13:19;;;;;;;5.95;0.52;;;6.90;99.90;;;;;;5036936;28;20377;-73
2021/01/22 12:15:46;;;;;;;7.93;1.40;;;6.90;99.90;;;;;;5019122;28;20033;-73
2021/01/22 12:18:11;;;;;;;7.03;0.65;;;6.90;99.90;;;;;;5019304;28;20470;-73
2021/01/22 12:20:37;;;;;;;5.32;0.20;;;7.00;99.90;;;;;;5019109;28;20068;-73
2021/01/22 12:23:03;;;;;;;6.80;0.75;;;7.10;99.90;;;;;;5036970;28;20075;-73
2021/01/22 12:25:29;;;;;;;2.85;0.52;;;7.20;99.90;;;;;;5037110;28;20022;-78
2021/01/22 12:27:54;;;;;;;4.22;0.52;;;7.20;99.90;;;;;;5029812;28;20028;-78
2021/01/22 12:30:21;;;;;;;6.00;0.28;;;7.30;99.90;;;;;;5024793;28;20020;-78
2021/01/22 12:32:46;;;;;;;10.05;0.63;;;7.20;99.90;;;;;;5044480;28;20041;-77
2021/01/22 12:35:17;;;;;;;5.80;0.68;;;7.10;99.90;;;;;;5046926;28;20021;-78
2021/01/22 12:37:44;;;;;;;11.57;0.57;;;7.30;99.90;;;;;;5036271;28;20033;-79
2021/01/22 12:40:10;;;;;;;3.58;0.10;;;7.10;99.90;;;;;;5036397;28;20488;-78
2021/01/22 12:42:36;;;;;;;10.85;0.60;;;7.10;99.90;;;;;;5046044;28;20430;-77
2021/01/22 12:45:02;;;;;;;10.88;1.55;;;7.10;99.90;;;;;;5038561;28;20025;-74
2021/01/22 12:47:28;;;;;;;4.78;0.32;;;7.10;99.90;;;;;;5055893;28;20056;-75
2021/01/22 12:49:56;;;;;;;11.88;0.77;;;7.40;99.90;;;;;;5038088;28;20479;-74
2021/01/22 12:52:22;;;;;;;8.77;0.55;;;7.20;99.90;;;;;;5057029;28;20028;-74
2021/01/22 12:54:47;;;;;;;23.05;1.20;;;7.20;99.90;;;;;;5026502;28;20029;-74
2021/01/22 12:57:16;;;;;;;7.78;1.27;;;7.20;99.90;;;;;;5039052;28;20029;-75
2021/01/22 12:59:45;;;;;;;7.72;0.45;;;7.20;99.90;;;;;;5049393;28;20082;-75